createdAt,value
2019-03-25T00:04:21.829Z,21.41
2019-03-25T00:09:26.160Z,21.35
2019-03-25T00:14:30.501Z,21.35
2019-03-25T00:19:34.952Z,21.36
2019-03-25T00:24:39.358Z,21.36
2019-03-25T00:29:43.680Z,21.37
2019-03-25T00:34:47.995Z,21.37
2019-03-25T00:39:52.394Z,21.33
2019-03-25T00:44:56.720Z,21.33
2019-03-25T00:50:01.046Z,21.31
2019-03-25T00:55:05.488Z,21.31
2019-03-25T01:00:10.004Z,21.31
2019-03-25T01:05:14.432Z,21.31
2019-03-25T01:10:18.802Z,21.33
2019-03-25T01:15:23.113Z,21.30
2019-03-25T01:20:27.592Z,21.30
2019-03-25T01:25:31.900Z,21.27
2019-03-25T01:30:36.245Z,21.27
2019-03-25T01:35:40.583Z,21.26
2019-03-25T01:40:44.940Z,21.28
2019-03-25T01:45:49.238Z,21.26
2019-03-25T01:50:53.537Z,21.27
2019-03-25T01:55:57.922Z,21.25
2019-03-25T02:01:02.287Z,21.25
2019-03-25T02:06:06.583Z,21.24
2019-03-25T02:11:10.877Z,21.20
2019-03-25T02:16:15.373Z,21.17
2019-03-25T02:21:19.769Z,21.17
2019-03-25T02:26:24.183Z,21.17
2019-03-25T02:31:28.468Z,21.14
2019-03-25T02:36:32.800Z,21.13
2019-03-25T02:41:37.119Z,21.12
2019-03-25T02:46:41.477Z,21.12
2019-03-25T02:51:45.816Z,21.11
2019-03-25T02:56:50.141Z,21.08
2019-03-25T03:01:54.471Z,21.09
2019-03-25T03:06:58.828Z,21.10
2019-03-25T03:12:03.150Z,21.10
2019-03-25T03:17:07.488Z,21.09
2019-03-25T03:22:11.890Z,21.09
2019-03-25T03:27:16.293Z,21.07
2019-03-25T03:32:20.625Z,21.09
2019-03-25T03:37:24.911Z,21.09
2019-03-25T03:42:29.440Z,21.05
2019-03-25T03:47:33.856Z,21.07
2019-03-25T03:52:38.254Z,21.03
2019-03-25T03:57:43.290Z,21.03
2019-03-25T04:02:47.632Z,21.04
2019-03-25T04:07:52.087Z,21.04
2019-03-25T04:12:56.511Z,21.01
2019-03-25T04:18:00.966Z,21.01
2019-03-25T04:23:05.279Z,20.92
2019-03-25T04:28:09.574Z,21.01
2019-03-25T04:33:13.865Z,20.97
2019-03-25T04:38:18.168Z,20.99
2019-03-25T04:43:22.549Z,20.98
2019-03-25T04:48:26.980Z,21.00
2019-03-25T04:53:31.303Z,21.02
2019-03-25T04:58:35.701Z,20.96
2019-03-25T05:03:40.072Z,20.96
2019-03-25T05:08:44.350Z,20.91
2019-03-25T05:13:48.645Z,20.91
2019-03-25T05:18:52.955Z,20.91
2019-03-25T05:23:57.261Z,20.88
2019-03-25T05:29:01.567Z,20.87
2019-03-25T05:34:05.874Z,20.85
2019-03-25T05:39:10.496Z,20.85
2019-03-25T05:44:14.817Z,20.83
2019-03-25T05:49:19.237Z,20.83
2019-03-25T05:54:23.557Z,20.81
2019-03-25T05:59:27.964Z,20.80
2019-03-25T06:04:32.357Z,20.78
2019-03-25T06:09:36.736Z,20.77
2019-03-25T06:14:41.065Z,20.77
2019-03-25T06:19:45.380Z,20.79
2019-03-25T06:24:50.124Z,20.77
2019-03-25T06:29:54.484Z,20.77
2019-03-25T06:34:58.820Z,20.72
2019-03-25T06:40:03.163Z,20.74
2019-03-25T06:45:08.942Z,20.73
2019-03-25T06:50:13.375Z,20.73
2019-03-25T06:55:17.652Z,20.71
2019-03-25T07:00:22.020Z,20.72
2019-03-25T07:05:26.409Z,20.70
2019-03-25T07:10:35.141Z,20.70
2019-03-25T07:15:39.554Z,20.72
2019-03-25T07:20:43.879Z,20.72
2019-03-25T07:25:48.199Z,20.74
2019-03-25T07:30:52.702Z,20.80
2019-03-25T07:35:57.072Z,20.80
2019-03-25T07:41:01.387Z,20.77
2019-03-25T07:46:05.688Z,15.48
2019-03-25T07:51:10.477Z,14.83
2019-03-25T07:56:14.783Z,14.60
2019-03-25T08:01:19.403Z,14.60
2019-03-25T08:06:23.751Z,17.27
2019-03-25T08:11:28.271Z,17.84
2019-03-25T08:16:32.611Z,18.67
2019-03-25T08:21:36.924Z,18.93
2019-03-25T08:26:42.851Z,19.21
2019-03-25T08:31:47.480Z,19.87
2019-03-25T08:36:51.915Z,20.32
2019-03-25T08:41:56.175Z,20.39
2019-03-25T08:47:01.062Z,20.39
2019-03-25T08:52:05.394Z,20.46
2019-03-25T08:57:09.666Z,20.54
2019-03-25T09:02:14.055Z,20.56
2019-03-25T09:07:18.363Z,20.56
2019-03-25T09:12:22.721Z,20.56
2019-03-25T09:17:27.044Z,20.46
2019-03-25T09:22:31.324Z,20.46
2019-03-25T09:27:35.636Z,20.41
2019-03-25T09:32:39.919Z,20.46
2019-03-25T09:37:44.209Z,20.46
2019-03-25T09:42:48.526Z,20.40
2019-03-25T09:47:53.051Z,20.44
2019-03-25T09:52:57.429Z,20.41
2019-03-25T09:58:01.758Z,20.41
2019-03-25T10:03:06.043Z,20.39
2019-03-25T10:08:10.463Z,20.39
2019-03-25T10:13:14.950Z,20.36
2019-03-25T10:18:19.241Z,20.37
2019-03-25T10:23:23.574Z,20.47
2019-03-25T10:28:27.953Z,20.47
2019-03-25T10:33:32.246Z,20.50
2019-03-25T10:38:36.540Z,20.50
2019-03-25T10:43:40.850Z,20.49
2019-03-25T10:48:45.267Z,20.47
2019-03-25T10:53:49.556Z,20.46
2019-03-25T10:58:58.095Z,20.48
2019-03-25T11:03:59.949Z,20.50
2019-03-25T11:09:06.212Z,20.50
2019-03-25T11:14:10.499Z,20.52
2019-03-25T11:19:14.845Z,20.56
2019-03-25T11:24:19.127Z,20.54
2019-03-25T11:29:23.454Z,20.54
2019-03-25T11:34:27.745Z,20.53
2019-03-25T11:39:32.036Z,20.57
2019-03-25T11:44:36.346Z,20.57
2019-03-25T11:49:40.641Z,20.57
2019-03-25T11:54:45.053Z,20.57
2019-03-25T11:59:49.389Z,20.55
2019-03-25T12:04:53.711Z,20.55
2019-03-25T12:09:57.990Z,20.57
2019-03-25T12:15:02.503Z,13.01
2019-03-25T12:20:06.863Z,11.24
2019-03-25T12:25:11.245Z,15.53
2019-03-25T12:30:15.536Z,18.34
2019-03-25T12:35:19.833Z,19.50
2019-03-25T12:40:24.142Z,19.50
2019-03-25T12:45:28.611Z,20.22
2019-03-25T12:50:32.911Z,20.69
2019-03-25T12:55:38.095Z,20.69
2019-03-25T13:00:43.578Z,20.73
2019-03-25T13:05:48.175Z,20.70
2019-03-25T13:10:52.538Z,20.70
2019-03-25T13:15:56.885Z,20.61
2019-03-25T13:21:01.234Z,20.61
2019-03-25T13:26:05.522Z,20.56
2019-03-25T13:31:09.841Z,20.50
2019-03-25T13:36:14.159Z,20.50
2019-03-25T13:41:18.452Z,20.45
2019-03-25T13:46:22.868Z,20.44
2019-03-25T13:51:27.208Z,20.43
2019-03-25T13:56:31.545Z,20.45
2019-03-25T14:01:35.872Z,20.49
2019-03-25T14:06:40.213Z,20.64
2019-03-25T14:11:44.505Z,20.68
2019-03-25T14:16:48.876Z,20.69
2019-03-25T14:21:53.213Z,20.72
2019-03-25T14:26:57.666Z,20.73
2019-03-25T14:32:01.990Z,20.72
2019-03-25T14:37:06.299Z,20.81
2019-03-25T14:42:10.689Z,20.81
2019-03-25T14:47:15.011Z,20.80
2019-03-25T14:52:19.498Z,20.89
2019-03-25T14:57:26.363Z,20.89
2019-03-25T15:02:30.775Z,20.75
2019-03-25T15:07:35.094Z,20.63
2019-03-25T15:12:39.453Z,20.63
2019-03-25T15:17:43.834Z,20.62
2019-03-25T15:22:48.119Z,20.64
2019-03-25T15:27:52.445Z,20.53
2019-03-25T15:32:56.738Z,20.64
2019-03-25T15:38:01.060Z,20.64
2019-03-25T15:43:05.392Z,20.67
2019-03-25T15:48:09.770Z,20.72
2019-03-25T15:53:14.268Z,20.72
2019-03-25T15:58:26.109Z,20.71
2019-03-25T16:03:24.686Z,20.71
2019-03-25T16:08:29.012Z,20.71
2019-03-25T16:13:33.354Z,20.73
2019-03-25T16:18:41.684Z,20.74
2019-03-25T16:23:46.095Z,20.74
2019-03-25T16:28:50.433Z,20.74
2019-03-25T16:33:54.859Z,20.74
2019-03-25T16:38:59.314Z,20.83
2019-03-25T16:44:03.739Z,21.10
2019-03-25T16:49:08.217Z,21.17
2019-03-25T16:54:12.619Z,21.17
2019-03-25T16:59:17.021Z,21.30
2019-03-25T17:04:21.840Z,21.33
2019-03-25T17:09:26.340Z,21.35
2019-03-25T17:14:30.674Z,21.35
2019-03-25T17:24:38.174Z,22.11
2019-03-25T17:29:42.501Z,22.32
2019-03-25T17:34:46.796Z,22.32
2019-03-25T17:39:51.100Z,22.28
2019-03-25T17:44:55.480Z,22.09
2019-03-25T17:49:59.803Z,22.09
2019-03-25T17:55:04.566Z,21.88
2019-03-25T18:00:10.181Z,21.88
2019-03-25T18:05:14.502Z,21.78
2019-03-25T18:10:18.833Z,21.78
2019-03-25T18:15:23.296Z,21.64
2019-03-25T18:20:27.721Z,21.69
2019-03-25T18:25:32.273Z,21.89
2019-03-25T18:30:36.992Z,21.94
2019-03-25T18:35:41.293Z,21.94
2019-03-25T18:40:45.603Z,22.03
2019-03-25T18:45:49.911Z,22.04
2019-03-25T18:50:54.226Z,22.04
2019-03-25T18:55:58.590Z,21.93
2019-03-25T19:01:03.013Z,21.88
2019-03-25T19:06:07.382Z,21.93
2019-03-25T19:11:11.795Z,21.79
2019-03-25T19:16:16.148Z,21.79
2019-03-25T19:21:20.483Z,21.79
2019-03-25T19:26:24.912Z,22.04
2019-03-25T19:31:29.523Z,22.11
2019-03-25T19:36:33.879Z,22.11
2019-03-25T19:41:38.287Z,22.04
2019-03-25T19:46:42.630Z,22.01
2019-03-25T19:51:47.001Z,22.01
2019-03-25T19:56:51.698Z,21.83
2019-03-25T20:01:56.158Z,21.76
2019-03-25T20:07:00.525Z,21.90
2019-03-25T20:12:04.962Z,21.80
2019-03-25T20:17:09.311Z,21.80
2019-03-25T20:22:13.664Z,21.78
2019-03-25T20:27:18.072Z,21.74
2019-03-25T20:33:34.501Z,21.76
2019-03-25T20:38:38.812Z,21.68
2019-03-25T20:43:43.139Z,21.63
2019-03-25T20:48:47.555Z,21.63
2019-03-25T20:53:51.895Z,21.61
2019-03-25T20:58:56.191Z,21.58
2019-03-25T21:04:00.615Z,21.55
2019-03-25T21:09:06.337Z,21.59
2019-03-25T21:14:10.686Z,21.60
2019-03-25T21:19:15.135Z,21.59
2019-03-25T21:24:19.590Z,21.59
2019-03-25T21:29:24.108Z,21.59
2019-03-25T21:34:28.465Z,21.53
2019-03-25T21:39:32.802Z,21.53
2019-03-25T21:44:37.314Z,21.51
2019-03-25T21:49:41.710Z,21.49
2019-03-25T21:54:46.095Z,21.49
2019-03-25T21:59:51.550Z,21.49
2019-03-25T22:04:57.179Z,21.46
2019-03-25T22:10:01.869Z,21.46
2019-03-25T22:15:09.206Z,21.46
2019-03-25T22:20:13.597Z,21.55
2019-03-25T22:25:17.946Z,21.47
2019-03-25T22:30:22.263Z,21.47
2019-03-25T22:35:26.600Z,21.47
2019-03-25T22:40:30.905Z,21.47
2019-03-25T22:45:35.183Z,21.43
2019-03-25T22:50:39.512Z,21.54
2019-03-25T22:55:43.795Z,21.47
2019-03-25T23:00:48.904Z,21.44
2019-03-25T23:05:53.241Z,21.35
2019-03-25T23:10:57.569Z,21.42
2019-03-25T23:16:01.873Z,21.42
2019-03-25T23:21:06.158Z,21.42
2019-03-25T23:26:10.474Z,21.41
2019-03-25T23:31:14.901Z,21.38
2019-03-25T23:36:19.236Z,21.39
2019-03-25T23:41:23.559Z,21.40
2019-03-25T23:46:27.837Z,21.37
2019-03-25T23:51:32.158Z,21.37
2019-03-25T23:56:36.434Z,21.37
